Time;durP1;ratioP1;P1;durP2;ratioP2;P2;SDS_P1;SDS_P2;PMS_P1;PMS_P2;Temp;Humidity;BMP_temperature;BMP_pressure;BME280_temperature;BME280_humidity;BME280_pressure;Samples;Min_cycle;Max_cycle;Signal;HPM_P1;HPM_P2
2023/01/20 00:00:33;;;;;;;;;;;27.70;83.50;;;;;;5024689;28;19944;-51
2023/01/20 00:02:59;;;;;;;;;;;27.70;83.50;;;;;;5024322;28;19909;-53
2023/01/20 00:05:27;;;;;;;;;;;27.70;83.50;;;;;;5024582;28;20154;-53
2023/01/20 00:07:53;;;;;;;;;;;27.60;83.40;;;;;;5024174;28;19951;-56
2023/01/20 00:10:19;;;;;;;;;;;27.60;83.90;;;;;;5024390;28;19909;-54
2023/01/20 00:12:45;;;;;;;;;;;27.60;83.40;;;;;;5024209;28;19905;-56
2023/01/20 00:15:11;;;;;;;;;;;27.60;83.40;;;;;;5024489;28;19907;-53
2023/01/20 00:17:37;;;;;;;;;;;27.60;83.60;;;;;;5024148;28;19909;-55
2023/01/20 00:20:07;;;;;;;;;;;27.60;83.70;;;;;;5024431;28;19909;-51
2023/01/20 00:22:33;;;;;;;;;;;27.50;83.70;;;;;;5024402;28;19952;-58
2023/01/20 00:24:59;;;;;;;;;;;27.50;83.80;;;;;;5023082;28;20093;-54
2023/01/20 00:27:26;;;;;;;;;;;27.50;84.00;;;;;;5023951;28;19917;-53
2023/01/20 00:29:52;;;;;;;;;;;27.50;83.90;;;;;;5022875;28;19932;-55
2023/01/20 00:32:19;;;;;;;;;;;27.50;83.90;;;;;;5023903;28;20147;-51
2023/01/20 00:34:45;;;;;;;;;;;27.40;83.80;;;;;;5022838;28;19947;-53
2023/01/20 00:37:13;;;;;;;;;;;27.40;83.90;;;;;;5023815;28;19905;-55
2023/01/20 00:39:39;;;;;;;;;;;27.40;84.00;;;;;;5023405;28;19906;-54
2023/01/20 00:42:05;;;;;;;;;;;27.40;84.00;;;;;;5024255;28;19906;-53
2023/01/20 00:44:31;;;;;;;;;;;27.40;84.10;;;;;;5023119;28;19909;-55
2023/01/20 00:46:58;;;;;;;;;;;27.30;84.20;;;;;;5023069;28;19909;-54
2023/01/20 00:49:25;;;;;;;;;;;27.20;84.50;;;;;;5023797;28;19905;-59
2023/01/20 00:51:52;;;;;;;;;;;27.00;84.60;;;;;;5023305;28;19986;-54
2023/01/20 00:54:18;;;;;;;;;;;27.10;84.50;;;;;;5022931;28;19911;-55
2023/01/20 00:56:46;;;;;;;;;;;27.00;84.00;;;;;;5024269;28;19937;-56
2023/01/20 00:59:12;;;;;;;;;;;27.10;83.60;;;;;;5024428;28;19913;-52
2023/01/20 01:01:38;;;;;;;;;;;27.10;83.20;;;;;;5026907;28;19909;-51
2023/01/20 01:04:07;;;;;;;;;;;27.10;82.90;;;;;;5027159;28;19984;-55
2023/01/20 01:06:38;;;;;;;;;;;27.10;82.50;;;;;;5027078;28;19909;-56
2023/01/20 01:09:04;;;;;;;;;;;27.10;82.10;;;;;;5026883;28;19912;-54
2023/01/20 01:11:31;;;;;;;;;;;27.10;82.30;;;;;;5027050;28;19906;-54
2023/01/20 01:14:07;;;;;;;;;;;27.10;81.50;;;;;;5026852;28;19905;-54
2023/01/20 01:16:45;;;;;;;;;;;27.10;81.30;;;;;;5025790;28;19909;-54
2023/01/20 01:19:13;;;;;;;;;;;27.10;81.30;;;;;;5027172;28;19933;-53
2023/01/20 01:21:41;;;;;;;;;;;27.10;81.30;;;;;;5026976;28;19916;-50
2023/01/20 01:24:08;;;;;;;;;;;27.10;81.40;;;;;;5026920;28;20136;-56
2023/01/20 01:26:37;;;;;;;;;;;27.00;81.50;;;;;;5026615;28;19906;-53
2023/01/20 01:29:13;;;;;;;;;;;27.00;81.60;;;;;;5026612;28;19972;-55
2023/01/20 01:31:42;;;;;;;;;;;27.00;81.40;;;;;;5010200;28;19909;-55
2023/01/20 01:34:09;;;;;;;;;;;27.00;81.40;;;;;;5026767;28;19951;-57
2023/01/20 01:36:35;;;;;;;;;;;27.00;81.30;;;;;;5026694;28;20212;-54
2023/01/20 01:39:02;;;;;;;;;;;27.00;80.90;;;;;;5025859;28;20165;-53
2023/01/20 01:41:29;;;;;;;;;;;27.00;80.60;;;;;;5026646;28;20182;-61
2023/01/20 01:44:10;;;;;;;;;;;27.00;80.50;;;;;;5026297;28;19911;-55
2023/01/20 01:46:41;;;;;;;;;;;27.00;80.50;;;;;;5026522;28;19959;-52
2023/01/20 01:49:13;;;;;;;;;;;27.00;80.20;;;;;;5026149;28;19971;-59
2023/01/20 01:51:51;;;;;;;;;;;26.90;80.10;;;;;;5026340;28;19905;-54
2023/01/20 01:54:18;;;;;;;;;;;26.90;80.20;;;;;;5023781;28;19912;-56
2023/01/20 01:56:48;;;;;;;;;;;26.90;79.70;;;;;;5026251;28;19980;-61
2023/01/20 01:59:18;;;;;;;;;;;26.90;79.60;;;;;;5026102;28;19912;-61
2023/01/20 02:01:47;;;;;;;;;;;26.90;79.60;;;;;;5041448;28;19940;-56
2023/01/20 02:04:26;;;;;;;;;;;26.90;79.80;;;;;;5024910;28;19932;-53
2023/01/20 02:07:14;;;;;;;;;;;26.90;80.30;;;;;;5130376;23;20703;-59
2023/01/20 02:09:47;;;;;;;;;;;26.90;80.60;;;;;;5006183;28;19910;-59
2023/01/20 02:12:28;;;;;;;;;;;26.90;80.70;;;;;;5006269;28;19913;-55
2023/01/20 02:14:56;;;;;;;;;;;26.80;80.80;;;;;;5006249;28;19905;-51
2023/01/20 02:17:51;;;;;;;;;;;26.80;81.00;;;;;;5006389;28;19956;-50
2023/01/20 02:20:49;;;;;;;;;;;26.80;81.00;;;;;;5004894;28;19906;-52
2023/01/20 02:23:35;;;;;;;;;;;26.80;81.10;;;;;;5006084;28;19929;-51
2023/01/20 02:26:04;;;;;;;;;;;26.70;81.50;;;;;;4970091;28;19952;-53
2023/01/20 02:28:56;;;;;;;;;;;26.70;81.30;;;;;;5005988;28;19997;-55
2023/01/20 02:31:32;;;;;;;;;;;26.70;81.20;;;;;;5005856;28;19988;-55
2023/01/20 02:34:04;;;;;;;;;;;26.70;81.10;;;;;;5006063;28;19901;-52
2023/01/20 02:36:54;;;;;;;;;;;26.70;80.90;;;;;;4997695;28;19910;-51
2023/01/20 02:39:23;;;;;;;;;;;26.70;80.80;;;;;;5004094;28;19906;-51
2023/01/20 02:41:56;;;;;;;;;;;26.70;80.60;;;;;;4999604;28;20086;-53
2023/01/20 02:44:30;;;;;;;;;;;26.70;80.60;;;;;;5004887;28;20202;-53
2023/01/20 02:47:05;;;;;;;;;;;26.70;80.50;;;;;;5004916;28;19913;-52
2023/01/20 02:49:39;;;;;;;;;;;26.70;80.50;;;;;;5003331;28;19921;-52
2023/01/20 02:52:12;;;;;;;;;;;26.70;80.70;;;;;;5005565;28;19980;-51
2023/01/20 02:54:45;;;;;;;;;;;26.70;80.80;;;;;;4989747;28;19906;-58
2023/01/20 02:57:13;;;;;;;;;;;26.70;80.80;;;;;;5005811;28;19917;-52
2023/01/20 02:59:42;;;;;;;;;;;26.60;80.90;;;;;;5005649;28;19902;-53
2023/01/20 03:02:09;;;;;;;;;;;26.60;81.10;;;;;;5005554;28;20121;-55
2023/01/20 03:04:39;;;;;;;;;;;26.60;81.20;;;;;;5006495;28;20204;-52
2023/01/20 03:07:06;;;;;;;;;;;26.60;81.80;;;;;;5012124;28;20190;-54
2023/01/20 03:09:35;;;;;;;;;;;26.60;81.50;;;;;;5024944;28;19905;-54
2023/01/20 03:12:05;;;;;;;;;;;26.50;81.50;;;;;;5025119;28;19905;-54
2023/01/20 03:14:32;;;;;;;;;;;26.60;81.80;;;;;;5022128;28;19913;-53
2023/01/20 03:17:01;;;;;;;;;;;26.50;81.80;;;;;;5038772;28;19910;-52
2023/01/20 03:19:36;;;;;;;;;;;26.50;81.90;;;;;;5022943;28;19984;-53
2023/01/20 03:22:02;;;;;;;;;;;26.50;82.00;;;;;;5025051;28;20243;-56
2023/01/20 03:24:28;;;;;;;;;;;26.50;81.80;;;;;;5018364;28;19999;-56
2023/01/20 03:26:55;;;;;;;;;;;26.40;81.50;;;;;;5005048;28;19917;-51
2023/01/20 03:29:21;;;;;;;;;;;26.40;81.50;;;;;;5005489;28;20134;-52
2023/01/20 03:31:50;;;;;;;;;;;26.40;81.70;;;;;;5016180;28;20055;-58
2023/01/20 03:34:21;;;;;;;;;;;26.40;81.70;;;;;;5013918;28;20071;-53
2023/01/20 03:36:48;;;;;;;;;;;26.40;81.40;;;;;;5020830;28;19909;-53
2023/01/20 03:39:15;;;;;;;;;;;26.30;81.30;;;;;;5024841;28;19980;-53
2023/01/20 03:41:41;;;;;;;;;;;26.30;81.20;;;;;;5006740;28;19905;-52
2023/01/20 03:44:20;;;;;;;;;;;26.30;81.20;;;;;;5024706;28;20154;-52
2023/01/20 03:46:46;;;;;;;;;;;26.30;81.10;;;;;;5023053;28;19909;-52
2023/01/20 03:49:15;;;;;;;;;;;26.30;80.90;;;;;;5024577;28;19916;-53
2023/01/20 03:51:44;;;;;;;;;;;26.20;80.80;;;;;;5023346;28;19936;-51
2023/01/20 03:54:14;;;;;;;;;;;26.20;80.90;;;;;;5024769;28;19944;-53
2023/01/20 03:56:44;;;;;;;;;;;26.20;81.00;;;;;;5023731;28;19920;-53
2023/01/20 03:59:13;;;;;;;;;;;26.20;81.10;;;;;;5024687;28;20189;-54
2023/01/20 04:01:41;;;;;;;;;;;26.20;81.00;;;;;;5024368;28;19941;-57
2023/01/20 04:04:10;;;;;;;;;;;26.10;80.70;;;;;;5024550;28;19912;-53
2023/01/20 04:06:38;;;;;;;;;;;26.10;80.50;;;;;;5024104;28;19910;-53
2023/01/20 04:09:07;;;;;;;;;;;26.10;80.50;;;;;;5024366;28;20006;-52
2023/01/20 04:11:36;;;;;;;;;;;26.10;80.50;;;;;;5024288;28;19944;-56
2023/01/20 04:14:02;;;;;;;;;;;26.00;80.40;;;;;;5024349;28;19917;-52
2023/01/20 04:16:30;;;;;;;;;;;26.00;80.50;;;;;;5024061;28;19972;-53
2023/01/20 04:18:57;;;;;;;;;;;26.00;80.60;;;;;;5024147;28;19939;-52
2023/01/20 04:21:28;;;;;;;;;;;26.00;80.90;;;;;;5022804;28;19907;-54
2023/01/20 04:23:54;;;;;;;;;;;26.00;81.00;;;;;;5024176;28;19936;-52
2023/01/20 04:26:22;;;;;;;;;;;25.90;81.10;;;;;;5024117;28;19905;-55
2023/01/20 04:28:49;;;;;;;;;;;26.00;81.30;;;;;;5024377;28;19952;-53
2023/01/20 04:31:17;;;;;;;;;;;25.90;81.10;;;;;;5022817;28;19905;-52
2023/01/20 04:33:43;;;;;;;;;;;25.90;81.10;;;;;;5023838;28;19916;-54
2023/01/20 04:36:09;;;;;;;;;;;25.90;81.10;;;;;;5026571;28;19912;-57
2023/01/20 04:38:37;;;;;;;;;;;25.90;81.20;;;;;;5026436;28;19905;-52
2023/01/20 04:41:24;;;;;;;;;;;25.90;81.30;;;;;;5026690;28;19913;-56
2023/01/20 04:43:50;;;;;;;;;;;25.90;81.20;;;;;;4986494;28;19917;-54
2023/01/20 04:46:18;;;;;;;;;;;25.90;81.10;;;;;;4986334;28;19902;-55
2023/01/20 04:48:45;;;;;;;;;;;25.90;81.10;;;;;;4954992;28;19946;-56
2023/01/20 04:51:11;;;;;;;;;;;25.90;81.10;;;;;;4983577;28;19910;-52
2023/01/20 04:53:41;;;;;;;;;;;25.80;81.00;;;;;;4984537;28;19965;-54
2023/01/20 04:56:14;;;;;;;;;;;25.80;81.20;;;;;;4986323;28;19926;-54
2023/01/20 04:58:41;;;;;;;;;;;25.80;81.30;;;;;;4986184;28;19938;-55
2023/01/20 05:01:07;;;;;;;;;;;25.80;81.30;;;;;;4983630;28;20112;-52
2023/01/20 05:03:34;;;;;;;;;;;25.70;81.20;;;;;;4986561;28;19945;-57
2023/01/20 05:06:00;;;;;;;;;;;25.70;81.20;;;;;;4985029;28;19910;-55
2023/01/20 05:08:26;;;;;;;;;;;25.70;81.30;;;;;;4984912;28;19981;-53
2023/01/20 05:10:52;;;;;;;;;;;25.70;81.30;;;;;;4986284;28;19910;-47
2023/01/20 05:13:18;;;;;;;;;;;25.70;81.20;;;;;;4986188;28;19929;-53
2023/01/20 05:15:45;;;;;;;;;;;25.70;81.40;;;;;;5005301;28;19910;-53
2023/01/20 05:18:11;;;;;;;;;;;25.70;81.40;;;;;;5007480;28;20102;-53
2023/01/20 05:20:37;;;;;;;;;;;25.60;81.30;;;;;;5007269;28;19917;-55
2023/01/20 05:23:03;;;;;;;;;;;25.60;81.30;;;;;;5007424;28;19948;-53
2023/01/20 05:25:29;;;;;;;;;;;25.60;81.20;;;;;;5007222;28;19948;-55
2023/01/20 05:27:57;;;;;;;;;;;25.60;81.10;;;;;;5007061;28;19909;-54
2023/01/20 05:30:23;;;;;;;;;;;25.60;80.90;;;;;;5007250;28;19947;-53
2023/01/20 05:32:49;;;;;;;;;;;25.60;80.90;;;;;;5007093;28;19906;-54
2023/01/20 05:35:16;;;;;;;;;;;25.60;80.70;;;;;;5007007;28;19902;-47
2023/01/20 05:37:42;;;;;;;;;;;25.60;80.50;;;;;;5007126;28;19917;-50
2023/01/20 05:40:08;;;;;;;;;;;25.60;80.30;;;;;;5006959;28;19908;-55
2023/01/20 05:42:35;;;;;;;;;;;25.50;80.10;;;;;;5007079;28;19913;-52
2023/01/20 05:45:01;;;;;;;;;;;25.50;79.90;;;;;;5005645;28;20001;-56
2023/01/20 05:47:27;;;;;;;;;;;25.50;79.70;;;;;;5007016;28;19966;-52
2023/01/20 05:49:53;;;;;;;;;;;25.50;79.70;;;;;;5006771;28;19905;-54
2023/01/20 05:52:19;;;;;;;;;;;25.50;79.50;;;;;;5006560;28;20202;-58
2023/01/20 05:54:45;;;;;;;;;;;25.50;79.20;;;;;;5006896;28;19902;-56
2023/01/20 05:57:16;;;;;;;;;;;25.50;78.90;;;;;;5007131;28;19937;-53
2023/01/20 05:59:44;;;;;;;;;;;25.50;78.80;;;;;;5006517;28;19901;-53
2023/01/20 06:02:12;;;;;;;;;;;25.50;78.70;;;;;;5006452;28;19910;-53
2023/01/20 06:04:38;;;;;;;;;;;25.50;78.60;;;;;;5006511;28;19902;-52
2023/01/20 06:07:04;;;;;;;;;;;25.50;78.50;;;;;;5006450;28;19956;-50
2023/01/20 06:09:30;;;;;;;;;;;25.50;78.30;;;;;;5006598;28;19978;-54
2023/01/20 06:11:56;;;;;;;;;;;25.50;78.20;;;;;;5006933;28;20174;-53
2023/01/20 06:14:22;;;;;;;;;;;25.50;78.30;;;;;;5006317;28;19944;-55
2023/01/20 06:16:49;;;;;;;;;;;25.40;78.10;;;;;;5006820;28;19906;-48
2023/01/20 06:19:15;;;;;;;;;;;25.50;77.80;;;;;;5006260;28;19912;-53
2023/01/20 06:21:41;;;;;;;;;;;25.50;77.90;;;;;;5006394;28;19910;-52
2023/01/20 06:24:07;;;;;;;;;;;25.50;77.70;;;;;;5006270;28;19933;-54
2023/01/20 06:26:34;;;;;;;;;;;25.50;77.70;;;;;;5006357;28;19918;-52
2023/01/20 06:29:00;;;;;;;;;;;25.50;77.50;;;;;;5006018;28;19902;-56
2023/01/20 06:31:29;;;;;;;;;;;25.50;77.40;;;;;;5009413;28;19910;-52
2023/01/20 06:33:55;;;;;;;;;;;25.50;77.60;;;;;;5016749;28;19914;-52
2023/01/20 06:36:21;;;;;;;;;;;25.50;77.70;;;;;;5019223;28;19909;-56
2023/01/20 06:38:49;;;;;;;;;;;25.50;77.60;;;;;;5015383;28;19912;-58
2023/01/20 06:41:16;;;;;;;;;;;25.40;77.20;;;;;;5006012;28;20196;-56
2023/01/20 06:43:43;;;;;;;;;;;25.40;76.80;;;;;;5005835;28;19905;-53
2023/01/20 06:46:10;;;;;;;;;;;25.40;76.60;;;;;;5005864;28;19918;-60
2023/01/20 06:48:37;;;;;;;;;;;25.40;76.10;;;;;;5005791;28;19906;-61
2023/01/20 06:51:05;;;;;;;;;;;25.50;75.60;;;;;;5012853;28;19909;-53
2023/01/20 06:53:31;;;;;;;;;;;25.40;75.30;;;;;;5014796;28;19982;-52
2023/01/20 06:55:58;;;;;;;;;;;25.50;75.20;;;;;;5005596;28;19910;-52
2023/01/20 06:58:25;;;;;;;;;;;25.50;74.90;;;;;;5005388;28;19909;-55
2023/01/20 07:00:52;;;;;;;;;;;25.50;74.50;;;;;;4988159;28;19914;-52
2023/01/20 07:03:18;;;;;;;;;;;25.50;74.40;;;;;;5005470;28;19906;-59
2023/01/20 07:05:51;;;;;;;;;;;25.50;74.30;;;;;;5005520;28;19933;-53
2023/01/20 07:08:17;;;;;;;;;;;25.50;74.20;;;;;;5005107;28;19910;-52
2023/01/20 07:10:44;;;;;;;;;;;25.50;74.00;;;;;;5005431;28;19909;-52
2023/01/20 07:13:10;;;;;;;;;;;25.50;73.70;;;;;;5005170;28;20101;-52
2023/01/20 07:15:36;;;;;;;;;;;25.50;73.50;;;;;;5005295;28;19910;-51
2023/01/20 07:18:02;;;;;;;;;;;25.50;73.50;;;;;;5005231;28;19902;-54
2023/01/20 07:20:29;;;;;;;;;;;25.50;73.20;;;;;;5005306;28;19933;-52
2023/01/20 07:22:55;;;;;;;;;;;25.50;73.00;;;;;;5004885;28;19906;-57
2023/01/20 07:25:21;;;;;;;;;;;25.50;72.70;;;;;;5005138;28;19932;-52
2023/01/20 07:27:47;;;;;;;;;;;25.50;72.80;;;;;;5004973;28;19914;-53
2023/01/20 07:30:13;;;;;;;;;;;25.50;72.60;;;;;;5004895;28;19940;-52
2023/01/20 07:32:39;;;;;;;;;;;25.50;72.60;;;;;;5005034;28;20228;-52
2023/01/20 07:35:06;;;;;;;;;;;25.50;71.90;;;;;;5014620;28;19906;-49
2023/01/20 07:37:32;;;;;;;;;;;25.50;72.10;;;;;;5015341;28;19905;-53
2023/01/20 07:39:58;;;;;;;;;;;25.50;72.00;;;;;;5022832;28;19906;-52
2023/01/20 07:42:24;;;;;;;;;;;25.50;71.80;;;;;;5005389;28;19905;-60
2023/01/20 07:44:50;;;;;;;;;;;25.50;71.50;;;;;;5004809;28;19906;-58
2023/01/20 07:47:16;;;;;;;;;;;25.50;71.40;;;;;;5004667;28;19914;-59
2023/01/20 07:49:44;;;;;;;;;;;25.50;71.00;;;;;;5004972;28;19905;-63
2023/01/20 07:52:10;;;;;;;;;;;25.50;70.60;;;;;;5005096;28;19909;-49
2023/01/20 07:54:36;;;;;;;;;;;25.50;70.70;;;;;;5004879;28;19973;-48
2023/01/20 07:57:02;;;;;;;;;;;25.50;71.00;;;;;;5005330;28;19910;-53
2023/01/20 07:59:29;;;;;;;;;;;25.50;70.60;;;;;;5004624;28;20191;-58
2023/01/20 08:01:55;;;;;;;;;;;25.50;70.40;;;;;;5005040;28;19917;-55
2023/01/20 08:04:21;;;;;;;;;;;25.50;70.50;;;;;;5004651;28;19928;-52
2023/01/20 08:06:47;;;;;;;;;;;25.50;70.20;;;;;;5003268;28;19910;-48
2023/01/20 08:09:13;;;;;;;;;;;25.50;70.20;;;;;;5006496;28;19942;-53
2023/01/20 08:11:40;;;;;;;;;;;25.50;70.00;;;;;;5017603;28;20125;-50
2023/01/20 08:14:06;;;;;;;;;;;25.50;70.00;;;;;;5017893;28;20216;-49
2023/01/20 08:16:32;;;;;;;;;;;25.60;69.80;;;;;;5008676;28;20102;-48
2023/01/20 08:18:58;;;;;;;;;;;25.50;69.80;;;;;;5008628;28;19901;-53
2023/01/20 08:21:31;;;;;;;;;;;25.60;70.00;;;;;;5008646;28;19956;-53
2023/01/20 08:23:59;;;;;;;;;;;25.60;70.20;;;;;;5008222;28;19908;-52
2023/01/20 08:26:27;;;;;;;;;;;25.60;70.30;;;;;;5008733;28;19929;-51
2023/01/20 08:28:54;;;;;;;;;;;25.50;70.30;;;;;;5008258;28;19968;-52
2023/01/20 08:31:21;;;;;;;;;;;25.50;70.40;;;;;;5008071;28;19938;-51
2023/01/20 08:33:51;;;;;;;;;;;25.60;70.50;;;;;;5008239;28;19912;-52
2023/01/20 08:36:18;;;;;;;;;;;25.60;70.60;;;;;;5008491;28;19910;-56
2023/01/20 08:38:45;;;;;;;;;;;25.50;70.60;;;;;;5007992;28;19905;-54
2023/01/20 08:41:13;;;;;;;;;;;25.50;70.70;;;;;;5008408;28;19917;-54
2023/01/20 08:43:39;;;;;;;;;;;25.50;70.80;;;;;;5010553;28;19901;-53
2023/01/20 08:46:07;;;;;;;;;;;25.50;70.90;;;;;;5014878;28;19987;-52
2023/01/20 08:48:34;;;;;;;;;;;25.50;70.90;;;;;;5018956;28;20079;-55
2023/01/20 08:51:04;;;;;;;;;;;25.50;71.00;;;;;;5014879;28;19910;-54
2023/01/20 08:53:30;;;;;;;;;;;25.50;71.00;;;;;;5009002;28;19914;-52
2023/01/20 08:55:58;;;;;;;;;;;25.50;71.10;;;;;;5014071;28;19910;-52
2023/01/20 08:58:25;;;;;;;;;;;25.50;71.10;;;;;;5017160;28;19902;-56
2023/01/20 09:00:51;;;;;;;;;;;25.50;71.10;;;;;;5015128;28;20236;-49
2023/01/20 09:03:17;;;;;;;;;;;25.50;71.10;;;;;;5007700;28;19909;-54
2023/01/20 09:05:44;;;;;;;;;;;25.50;71.20;;;;;;5007742;28;19905;-54
2023/01/20 09:08:10;;;;;;;;;;;25.50;71.10;;;;;;5007111;28;19916;-49
2023/01/20 09:10:36;;;;;;;;;;;25.50;71.20;;;;;;5007561;28;19913;-56
2023/01/20 09:13:03;;;;;;;;;;;25.50;71.20;;;;;;5007634;28;20078;-53
2023/01/20 09:15:29;;;;;;;;;;;25.50;71.30;;;;;;5007246;28;19909;-52
2023/01/20 09:17:57;;;;;;;;;;;25.50;71.20;;;;;;5007605;28;19954;-50
2023/01/20 09:20:25;;;;;;;;;;;25.50;71.20;;;;;;5010893;28;19916;-52
2023/01/20 09:22:52;;;;;;;;;;;25.50;71.00;;;;;;5017334;28;20049;-49
2023/01/20 09:25:18;;;;;;;;;;;25.50;71.00;;;;;;5013414;28;19943;-54
2023/01/20 09:27:44;;;;;;;;;;;25.50;70.80;;;;;;5019847;28;20264;-55
2023/01/20 09:30:11;;;;;;;;;;;25.50;70.70;;;;;;5015989;28;19969;-53
2023/01/20 09:32:37;;;;;;;;;;;25.50;70.80;;;;;;5022730;28;19906;-52
2023/01/20 09:35:03;;;;;;;;;;;25.50;70.70;;;;;;5007056;28;19909;-54
2023/01/20 09:45:51;;;;;;;;;;;25.50;70.80;;;;;;5015539;28;20213;-54
2023/01/20 09:53:57;;;;;;;;;;;25.40;71.20;;;;;;5014295;28;19913;-52
2023/01/20 09:56:25;;;;;;;;;;;25.40;71.30;;;;;;5023190;28;20004;-55
2023/01/20 09:59:00;;;;;;;;;;;25.40;71.40;;;;;;5006691;28;20121;-53
2023/01/20 10:01:35;;;;;;;;;;;25.40;71.50;;;;;;5006869;28;19906;-51
2023/01/20 10:04:14;;;;;;;;;;;25.40;71.40;;;;;;5006482;28;19914;-58
2023/01/20 10:06:43;;;;;;;;;;;25.40;71.60;;;;;;5013376;28;19914;-52
2023/01/20 10:09:09;;;;;;;;;;;25.40;71.70;;;;;;5013237;28;19913;-54
2023/01/20 10:11:40;;;;;;;;;;;25.40;71.70;;;;;;5016410;28;19931;-55
2023/01/20 10:14:14;;;;;;;;;;;25.40;71.80;;;;;;5026097;28;20217;-55
2023/01/20 10:16:53;;;;;;;;;;;25.40;71.90;;;;;;5026316;28;19913;-55
2023/01/20 10:19:25;;;;;;;;;;;25.40;72.10;;;;;;5025827;28;19984;-53
2023/01/20 10:22:09;;;;;;;;;;;25.40;72.30;;;;;;5017678;28;19968;-53
2023/01/20 10:24:38;;;;;;;;;;;25.40;72.60;;;;;;5009927;28;19910;-53
2023/01/20 10:27:04;;;;;;;;;;;25.40;72.90;;;;;;5022503;28;19921;-51
2023/01/20 10:29:30;;;;;;;;;;;25.30;72.80;;;;;;5010923;28;19976;-52
2023/01/20 10:32:00;;;;;;;;;;;25.30;73.10;;;;;;5013485;28;19921;-51
2023/01/20 10:34:52;;;;;;;;;;;25.30;73.40;;;;;;5014033;28;20198;-51
2023/01/20 10:37:19;;;;;;;;;;;25.30;73.70;;;;;;5011746;28;19921;-52
2023/01/20 10:40:02;;;;;;;;;;;25.30;73.70;;;;;;5025487;28;19911;-53
2023/01/20 10:42:29;;;;;;;;;;;25.30;73.60;;;;;;5025416;28;19955;-51
2023/01/20 10:44:55;;;;;;;;;;;25.30;73.50;;;;;;5024533;28;19905;-56
2023/01/20 10:47:24;;;;;;;;;;;25.30;73.30;;;;;;5025077;28;19925;-52
2023/01/20 10:49:51;;;;;;;;;;;25.30;73.10;;;;;;5024269;28;20194;-53
2023/01/20 10:52:30;;;;;;;;;;;25.30;73.10;;;;;;5025211;28;20162;-54
2023/01/20 10:55:19;;;;;;;;;;;25.30;73.20;;;;;;5025303;28;19909;-53
2023/01/20 10:57:53;;;;;;;;;;;25.30;73.30;;;;;;5024058;28;19913;-53
2023/01/20 11:00:22;;;;;;;;;;;25.30;73.50;;;;;;5017251;28;19916;-54
2023/01/20 11:02:48;;;;;;;;;;;25.30;73.60;;;;;;5022268;28;19916;-54
2023/01/20 11:05:23;;;;;;;;;;;25.30;73.30;;;;;;5025168;28;19913;-50
2023/01/20 11:07:51;;;;;;;;;;;25.30;73.20;;;;;;5021964;28;19919;-54
2023/01/20 11:10:23;;;;;;;;;;;25.30;73.40;;;;;;5023418;28;19925;-52
2023/01/20 11:12:59;;;;;;;;;;;25.30;73.70;;;;;;5022976;28;19909;-53
2023/01/20 11:15:30;;;;;;;;;;;25.30;73.70;;;;;;5024145;28;19985;-54
2023/01/20 11:18:14;;;;;;;;;;;25.30;73.80;;;;;;5024923;28;19932;-54
2023/01/20 11:20:53;;;;;;;;;;;25.30;73.90;;;;;;5018622;28;19913;-52
2023/01/20 11:23:26;;;;;;;;;;;25.30;73.80;;;;;;5022633;28;19909;-52
2023/01/20 11:25:53;;;;;;;;;;;25.30;73.50;;;;;;5024796;28;19949;-53
2023/01/20 11:28:19;;;;;;;;;;;25.30;73.70;;;;;;5024638;28;20252;-56
2023/01/20 11:30:50;;;;;;;;;;;25.20;74.00;;;;;;5023398;28;19913;-59
2023/01/20 11:33:18;;;;;;;;;;;25.20;74.20;;;;;;5024553;28;19981;-58
2023/01/20 11:36:05;;;;;;;;;;;25.20;74.40;;;;;;5024751;28;19914;-54
2023/01/20 11:38:40;;;;;;;;;;;25.30;74.30;;;;;;5024655;28;19916;-53
2023/01/20 11:41:17;;;;;;;;;;;25.30;74.00;;;;;;5024161;28;19913;-56
2023/01/20 11:43:43;;;;;;;;;;;25.30;74.00;;;;;;5024247;28;19910;-55
2023/01/20 11:46:10;;;;;;;;;;;25.30;73.60;;;;;;5024484;28;19984;-52
2023/01/20 11:48:37;;;;;;;;;;;25.30;73.50;;;;;;5024473;28;19972;-55
2023/01/20 11:51:03;;;;;;;;;;;25.30;73.50;;;;;;5024651;28;19914;-55
2023/01/20 11:53:33;;;;;;;;;;;25.40;73.50;;;;;;5024591;28;20228;-52
2023/01/20 11:56:13;;;;;;;;;;;25.40;73.20;;;;;;5024601;28;19921;-56
2023/01/20 11:58:49;;;;;;;;;;;25.40;72.90;;;;;;5024442;28;19909;-55
2023/01/20 12:01:41;;;;;;;;;;;25.40;72.90;;;;;;5024654;28;19920;-52
2023/01/20 12:04:17;;;;;;;;;;;25.40;72.80;;;;;;5020856;28;19909;-53
2023/01/20 12:06:52;;;;;;;;;;;25.40;72.70;;;;;;5024376;28;19957;-62
2023/01/20 12:09:21;;;;;;;;;;;25.40;72.70;;;;;;5024265;28;19928;-57
2023/01/20 12:11:56;;;;;;;;;;;25.40;72.70;;;;;;5024628;28;19913;-52
2023/01/20 12:14:23;;;;;;;;;;;25.40;72.90;;;;;;5024056;28;19909;-53
2023/01/20 12:17:02;;;;;;;;;;;25.40;73.10;;;;;;5024606;28;19913;-55
2023/01/20 12:19:48;;;;;;;;;;;25.40;73.20;;;;;;5024072;28;19909;-54
2023/01/20 12:22:20;;;;;;;;;;;25.40;73.20;;;;;;4993687;28;19917;-53
2023/01/20 12:25:07;;;;;;;;;;;25.40;73.50;;;;;;5024042;28;19916;-55
2023/01/20 12:27:36;;;;;;;;;;;25.40;75.00;;;;;;5023921;28;19918;-54
2023/01/20 12:30:10;;;;;;;;;;;25.30;77.30;;;;;;5024047;28;19913;-54
2023/01/20 12:32:39;;;;;;;;;;;25.30;77.80;;;;;;5023995;28;20249;-56
2023/01/20 12:35:12;;;;;;;;;;;25.30;77.90;;;;;;5024103;28;20221;-53
2023/01/20 12:38:04;;;;;;;;;;;25.30;78.50;;;;;;5023907;28;19910;-53
2023/01/20 12:40:53;;;;;;;;;;;25.30;79.10;;;;;;5018912;28;19914;-53
2023/01/20 12:43:33;;;;;;;;;;;25.30;79.90;;;;;;5024227;28;19988;-53
2023/01/20 12:46:21;;;;;;;;;;;25.20;80.40;;;;;;5024015;28;19951;-56
2023/01/20 12:48:53;;;;;;;;;;;25.20;81.30;;;;;;5023989;28;19913;-53
2023/01/20 12:51:25;;;;;;;;;;;25.20;82.00;;;;;;5024095;28;20028;-56
2023/01/20 12:54:10;;;;;;;;;;;25.20;82.10;;;;;;5024112;28;19983;-54
2023/01/20 12:56:47;;;;;;;;;;;25.20;82.40;;;;;;5027920;28;19989;-55
2023/01/20 12:59:25;;;;;;;;;;;25.20;82.80;;;;;;5027430;28;19948;-54
2023/01/20 13:01:58;;;;;;;;;;;25.20;83.20;;;;;;5027671;28;19929;-60
2023/01/20 13:04:31;;;;;;;;;;;25.10;83.30;;;;;;5027483;28;19971;-53
2023/01/20 13:07:13;;;;;;;;;;;25.10;83.40;;;;;;5027259;28;20007;-56
2023/01/20 13:09:54;;;;;;;;;;;25.10;83.80;;;;;;5027261;28;19916;-52
2023/01/20 13:12:41;;;;;;;;;;;25.10;84.00;;;;;;5027054;28;19952;-54
2023/01/20 13:15:22;;;;;;;;;;;25.10;84.30;;;;;;5027063;28;19916;-52
2023/01/20 13:18:07;;;;;;;;;;;25.10;84.50;;;;;;5027191;28;19920;-54
2023/01/20 13:20:34;;;;;;;;;;;25.20;84.40;;;;;;5027099;28;19913;-53
2023/01/20 13:23:03;;;;;;;;;;;25.20;84.20;;;;;;5027136;28;20145;-54
2023/01/20 13:25:29;;;;;;;;;;;25.20;83.90;;;;;;5026921;28;20138;-53
2023/01/20 13:28:00;;;;;;;;;;;25.30;84.20;;;;;;5026793;28;19917;-57
2023/01/20 13:30:36;;;;;;;;;;;25.20;84.30;;;;;;5027018;28;19910;-62
2023/01/20 13:33:03;;;;;;;;;;;25.30;84.50;;;;;;5027030;28;19913;-52
2023/01/20 13:35:29;;;;;;;;;;;25.30;84.40;;;;;;5026831;28;19916;-54
2023/01/20 13:37:56;;;;;;;;;;;25.30;84.50;;;;;;5026878;28;19992;-52
2023/01/20 13:40:34;;;;;;;;;;;25.40;84.20;;;;;;5026649;28;19956;-50
2023/01/20 13:43:04;;;;;;;;;;;25.40;84.30;;;;;;5026845;28;19914;-56
2023/01/20 13:45:30;;;;;;;;;;;25.40;84.40;;;;;;5026638;28;20121;-50
2023/01/20 13:48:21;;;;;;;;;;;25.50;84.30;;;;;;5026197;28;20209;-55
2023/01/20 13:50:49;;;;;;;;;;;25.50;84.30;;;;;;5026456;28;19916;-60
2023/01/20 13:53:15;;;;;;;;;;;25.50;84.80;;;;;;5026492;28;19917;-55
2023/01/20 13:55:44;;;;;;;;;;;25.50;84.80;;;;;;5026349;28;19909;-56
2023/01/20 13:58:13;;;;;;;;;;;25.60;84.90;;;;;;5026773;28;20194;-54
2023/01/20 14:00:41;;;;;;;;;;;25.70;85.20;;;;;;5026224;28;19906;-56
2023/01/20 14:03:13;;;;;;;;;;;25.70;85.50;;;;;;5026063;28;19941;-57
2023/01/20 14:05:40;;;;;;;;;;;25.70;85.90;;;;;;5025882;28;19955;-53
2023/01/20 14:08:15;;;;;;;;;;;25.70;85.80;;;;;;5025494;28;19921;-55
2023/01/20 14:10:51;;;;;;;;;;;25.80;85.50;;;;;;5026153;28;19916;-58
2023/01/20 14:13:18;;;;;;;;;;;25.80;85.70;;;;;;5025574;28;19914;-55
2023/01/20 14:15:48;;;;;;;;;;;25.80;84.90;;;;;;5026022;28;19937;-53
2023/01/20 14:18:16;;;;;;;;;;;25.90;84.60;;;;;;5025031;28;20205;-54
2023/01/20 14:20:45;;;;;;;;;;;25.90;84.60;;;;;;5025946;28;19909;-54
2023/01/20 14:23:24;;;;;;;;;;;25.90;84.50;;;;;;5026193;28;19956;-55
2023/01/20 14:25:59;;;;;;;;;;;25.90;84.30;;;;;;5025997;28;19976;-56
2023/01/20 14:28:26;;;;;;;;;;;26.00;84.40;;;;;;5025974;28;19956;-57
2023/01/20 14:31:10;;;;;;;;;;;26.00;84.30;;;;;;5040287;28;19909;-54
2023/01/20 14:34:05;;;;;;;;;;;26.10;84.30;;;;;;5025624;28;19948;-53
2023/01/20 14:36:32;;;;;;;;;;;26.10;84.00;;;;;;5003852;28;19917;-55
2023/01/20 14:39:00;;;;;;;;;;;26.10;83.90;;;;;;5025941;28;19913;-58
2023/01/20 14:41:26;;;;;;;;;;;26.10;83.70;;;;;;5025941;28;19909;-53
2023/01/20 14:43:53;;;;;;;;;;;26.10;83.60;;;;;;5025735;28;19952;-55
2023/01/20 14:46:19;;;;;;;;;;;26.20;83.70;;;;;;5025671;28;19969;-53